CDT,Max TemperatureF,Mean TemperatureF,Min TemperatureF,Max Dew PointF,MeanDew PointF,Min DewpointF,Max Humidity, Mean Humidity, Min Humidity, Max Sea Level PressureIn, Mean Sea Level PressureIn, Min Sea Level PressureIn, Max VisibilityMiles, Mean VisibilityMiles, Min VisibilityMiles, Max Wind SpeedMPH, Mean Wind SpeedMPH, Max Gust SpeedMPH,PrecipitationIn, CloudCover, Events, WindDirDegrees
2011-10-1,69,56,42,41,37,32,81,54,27,30.33,30.26,30.21,10,10,7,9,4,9,0.00,0,,125
2011-10-2,77,59,41,45,41,37,87,59,26,30.27,30.21,30.14,10,10,10,13,7,17,0.00,0,,170
2011-10-3,78,61,44,48,43,37,81,52,30,30.20,30.16,30.11,10,10,10,15,8,23,0.00,0,,153
2011-10-4,89,74,59,48,46,45,59,43,22,30.15,30.11,30.04,10,10,10,16,10,22,0.00,0,,182
2011-10-5,82,66,51,46,43,37,76,45,21,30.11,30.06,29.99,10,10,7,22,10,30,0.00,0,,177
2011-10-6,82,68,55,52,45,41,67,45,28,30.02,29.96,29.88,10,10,10,26,14,38,0.00,0,,165
2011-10-7,82,74,66,61,57,50,61,53,45,30.00,29.95,29.91,10,10,10,30,20,44,0.00,2,,177
2011-10-8,78,70,62,64,57,52,88,66,47,30.10,30.04,29.99,10,10,4,25,14,37,0.11,4,Rain,183
2011-10-9,78,68,59,61,56,50,100,67,39,30.15,30.10,30.02,10,10,10,20,7,28,0.00,3,,150
2011-10-10,69,61,53,59,55,50,100,83,53,30.08,30.02,29.95,10,10,7,9,4,,0.05,5,Rain,198
2011-10-11,77,62,48,59,52,45,100,79,34,29.96,29.88,29.78,10,6,0,20,8,26,0.00,4,Fog,179
2011-10-12,68,62,55,59,55,50,100,81,60,29.79,29.73,29.69,10,10,7,16,7,21,0.03,5,Rain-Thunderstorm,244
2011-10-13,71,58,46,46,40,34,87,54,27,29.87,29.82,29.78,10,10,10,24,12,30,0.00,1,,311
2011-10-14,62,55,48,37,34,30,62,45,34,30.01,29.95,29.85,10,10,10,22,12,31,0.00,2,,314
2011-10-15,73,55,37,43,34,30,81,50,26,30.08,30.00,29.82,10,10,10,22,9,28,0.00,0,,241
2011-10-16,68,58,46,48,41,37,72,58,45,30.08,29.96,29.72,10,10,10,17,11,26,0.00,0,,332
2011-10-17,50,46,42,43,37,32,93,72,57,30.05,30.02,29.99,10,10,7,14,5,16,0.01,5,Rain,354
2011-10-18,51,46,41,37,32,23,76,58,37,30.08,30.04,29.99,10,10,10,21,12,32,0.00,3,,337
2011-10-19,48,40,32,28,27,23,80,64,40,30.11,30.07,30.04,10,10,10,20,10,29,0.00,0,,348
2011-10-20,53,42,30,32,30,27,93,70,41,30.08,30.05,30.02,10,10,10,13,9,20,0.00,1,,321
2011-10-21,69,50,32,37,33,28,93,56,28,30.13,30.08,30.03,10,10,10,16,6,21,0.00,0,,227
2011-10-22,62,54,46,46,40,36,76,60,44,30.13,30.09,30.04,10,10,4,8,5,,0.00,2,Rain,36
2011-10-23,78,58,39,48,43,39,100,64,24,30.02,29.96,29.87,10,9,1,17,5,22,0.00,0,,254
2011-10-24,78,60,42,43,38,36,76,46,23,30.12,30.02,29.86,10,10,10,20,7,24,0.00,0,,204
2011-10-25,77,65,53,54,46,41,68,50,34,29.94,29.76,29.70,10,10,10,24,17,30,0.00,0,,235
2011-10-26,51,46,42,41,37,34,76,68,58,30.11,30.07,29.99,10,10,10,17,12,25,0.00,3,,357
2011-10-27,55,44,33,36,31,23,93,62,33,30.18,30.13,30.11,10,10,10,13,8,10,0.00,1,,316
2011-10-28,57,45,33,32,26,19,75,54,25,30.20,30.17,30.14,10,10,10,20,10,25,0.00,0,,287
2011-10-29,62,47,32,32,27,19,70,44,27,30.15,30.00,29.84,10,10,10,20,10,24,0.00,0,,191
2011-10-30,60,52,44,36,30,23,66,44,27,30.06,29.99,29.86,10,10,10,25,14,32,0.00,1,,304
2011-10-31,66,49,32,32,28,23,81,48,26,30.09,30.03,29.93,10,10,7,14,7,17,0.00,0,,180